sensor_id;sensor_type;location;lat;lon;timestamp;temperature;humidity
27671;DHT22;15077;49.704;9.908;2023-09-12T00:00:16;23.40;51.40
27671;DHT22;15077;49.704;9.908;2023-09-12T00:02:42;23.40;51.50
27671;DHT22;15077;49.704;9.908;2023-09-12T00:05:08;23.40;51.50
27671;DHT22;15077;49.704;9.908;2023-09-12T00:07:35;23.40;51.60
27671;DHT22;15077;49.704;9.908;2023-09-12T00:10:02;23.30;51.60
27671;DHT22;15077;49.704;9.908;2023-09-12T00:12:28;23.30;51.60
27671;DHT22;15077;49.704;9.908;2023-09-12T00:14:54;23.30;51.70
27671;DHT22;15077;49.704;9.908;2023-09-12T00:17:20;23.20;51.70
27671;DHT22;15077;49.704;9.908;2023-09-12T00:19:46;23.20;51.80
27671;DHT22;15077;49.704;9.908;2023-09-12T00:22:11;23.20;51.80
27671;DHT22;15077;49.704;9.908;2023-09-12T00:24:38;23.10;51.90
27671;DHT22;15077;49.704;9.908;2023-09-12T00:27:05;23.10;51.90
27671;DHT22;15077;49.704;9.908;2023-09-12T00:29:32;23.10;51.90
27671;DHT22;15077;49.704;9.908;2023-09-12T00:31:59;23.00;52.00
27671;DHT22;15077;49.704;9.908;2023-09-12T00:34:26;23.00;52.10
27671;DHT22;15077;49.704;9.908;2023-09-12T00:36:52;23.00;52.10
27671;DHT22;15077;49.704;9.908;2023-09-12T00:39:17;23.00;52.20
27671;DHT22;15077;49.704;9.908;2023-09-12T00:41:43;23.00;52.20
27671;DHT22;15077;49.704;9.908;2023-09-12T00:44:10;22.90;52.20
27671;DHT22;15077;49.704;9.908;2023-09-12T00:46:36;22.90;52.40
27671;DHT22;15077;49.704;9.908;2023-09-12T00:49:04;22.80;52.30
27671;DHT22;15077;49.704;9.908;2023-09-12T00:51:33;22.80;52.30
27671;DHT22;15077;49.704;9.908;2023-09-12T00:54:00;22.80;52.30
27671;DHT22;15077;49.704;9.908;2023-09-12T00:56:29;22.70;52.20
27671;DHT22;15077;49.704;9.908;2023-09-12T00:58:56;22.70;52.30
27671;DHT22;15077;49.704;9.908;2023-09-12T01:01:23;22.60;52.30
27671;DHT22;15077;49.704;9.908;2023-09-12T01:03:50;22.60;52.40
27671;DHT22;15077;49.704;9.908;2023-09-12T01:06:19;22.60;52.40
27671;DHT22;15077;49.704;9.908;2023-09-12T01:08:49;22.60;52.70
27671;DHT22;15077;49.704;9.908;2023-09-12T01:11:16;22.50;52.50
27671;DHT22;15077;49.704;9.908;2023-09-12T01:13:43;22.50;53.30
27671;DHT22;15077;49.704;9.908;2023-09-12T01:16:09;22.50;52.70
27671;DHT22;15077;49.704;9.908;2023-09-12T01:18:35;22.40;52.70
27671;DHT22;15077;49.704;9.908;2023-09-12T01:27:31;22.40;53.00
27671;DHT22;15077;49.704;9.908;2023-09-12T01:30:02;22.30;52.90
27671;DHT22;15077;49.704;9.908;2023-09-12T01:32:32;22.30;53.00
27671;DHT22;15077;49.704;9.908;2023-09-12T01:34:59;22.30;53.10
27671;DHT22;15077;49.704;9.908;2023-09-12T01:37:25;22.20;53.00
27671;DHT22;15077;49.704;9.908;2023-09-12T01:39:51;22.20;53.10
27671;DHT22;15077;49.704;9.908;2023-09-12T01:42:20;22.10;53.20
27671;DHT22;15077;49.704;9.908;2023-09-12T01:44:50;22.10;53.40
27671;DHT22;15077;49.704;9.908;2023-09-12T01:47:21;22.10;53.40
27671;DHT22;15077;49.704;9.908;2023-09-12T01:49:52;22.10;53.40
27671;DHT22;15077;49.704;9.908;2023-09-12T01:52:21;22.10;53.50
27671;DHT22;15077;49.704;9.908;2023-09-12T01:54:49;22.00;53.30
27671;DHT22;15077;49.704;9.908;2023-09-12T01:57:17;22.00;53.50
27671;DHT22;15077;49.704;9.908;2023-09-12T01:59:47;22.00;53.60
27671;DHT22;15077;49.704;9.908;2023-09-12T02:02:18;22.00;53.70
27671;DHT22;15077;49.704;9.908;2023-09-12T02:04:58;22.00;53.80
27671;DHT22;15077;49.704;9.908;2023-09-12T02:07:38;21.90;53.90
27671;DHT22;15077;49.704;9.908;2023-09-12T02:10:05;21.90;53.70
27671;DHT22;15077;49.704;9.908;2023-09-12T02:12:32;21.90;53.80
27671;DHT22;15077;49.704;9.908;2023-09-12T02:14:58;21.90;53.90
27671;DHT22;15077;49.704;9.908;2023-09-12T02:17:24;21.90;53.90
27671;DHT22;15077;49.704;9.908;2023-09-12T02:19:50;21.90;53.90
27671;DHT22;15077;49.704;9.908;2023-09-12T02:22:16;21.80;54.00
27671;DHT22;15077;49.704;9.908;2023-09-12T02:24:41;21.80;54.00
27671;DHT22;15077;49.704;9.908;2023-09-12T02:27:07;21.80;54.10
27671;DHT22;15077;49.704;9.908;2023-09-12T02:29:33;21.80;54.10
27671;DHT22;15077;49.704;9.908;2023-09-12T02:31:59;21.70;54.10
27671;DHT22;15077;49.704;9.908;2023-09-12T02:34:25;21.80;54.40
27671;DHT22;15077;49.704;9.908;2023-09-12T02:36:52;21.70;54.30
27671;DHT22;15077;49.704;9.908;2023-09-12T02:39:20;21.70;54.40
27671;DHT22;15077;49.704;9.908;2023-09-12T02:41:48;21.70;54.50
27671;DHT22;15077;49.704;9.908;2023-09-12T02:44:14;21.70;54.50
27671;DHT22;15077;49.704;9.908;2023-09-12T02:46:41;21.60;54.50
27671;DHT22;15077;49.704;9.908;2023-09-12T02:49:07;21.60;54.60
27671;DHT22;15077;49.704;9.908;2023-09-12T02:51:33;21.60;54.70
27671;DHT22;15077;49.704;9.908;2023-09-12T02:53:59;21.50;54.70
27671;DHT22;15077;49.704;9.908;2023-09-12T02:56:25;21.50;54.70
27671;DHT22;15077;49.704;9.908;2023-09-12T02:58:53;21.50;54.80
27671;DHT22;15077;49.704;9.908;2023-09-12T03:01:20;21.50;54.80
27671;DHT22;15077;49.704;9.908;2023-09-12T03:03:48;21.50;54.90
27671;DHT22;15077;49.704;9.908;2023-09-12T03:06:16;21.40;54.80
27671;DHT22;15077;49.704;9.908;2023-09-12T03:08:43;21.40;54.80
27671;DHT22;15077;49.704;9.908;2023-09-12T03:11:10;21.40;54.80
27671;DHT22;15077;49.704;9.908;2023-09-12T03:13:37;21.40;54.90
27671;DHT22;15077;49.704;9.908;2023-09-12T03:16:09;21.40;55.00
27671;DHT22;15077;49.704;9.908;2023-09-12T03:18:39;21.30;54.90
27671;DHT22;15077;49.704;9.908;2023-09-12T03:21:05;21.30;54.90
27671;DHT22;15077;49.704;9.908;2023-09-12T03:23:32;21.30;55.00
27671;DHT22;15077;49.704;9.908;2023-09-12T03:26:05;21.30;55.10
27671;DHT22;15077;49.704;9.908;2023-09-12T03:28:34;21.30;55.30
27671;DHT22;15077;49.704;9.908;2023-09-12T03:31:09;21.20;55.10
27671;DHT22;15077;49.704;9.908;2023-09-12T03:33:38;21.20;55.30
27671;DHT22;15077;49.704;9.908;2023-09-12T03:36:07;21.20;55.20
27671;DHT22;15077;49.704;9.908;2023-09-12T03:38:34;21.10;55.20
27671;DHT22;15077;49.704;9.908;2023-09-12T03:41:02;21.10;55.30
27671;DHT22;15077;49.704;9.908;2023-09-12T03:43:28;21.10;55.30
27671;DHT22;15077;49.704;9.908;2023-09-12T03:45:55;21.10;55.40
27671;DHT22;15077;49.704;9.908;2023-09-12T03:48:21;21.00;55.30
27671;DHT22;15077;49.704;9.908;2023-09-12T03:50:47;21.00;55.40
27671;DHT22;15077;49.704;9.908;2023-09-12T03:53:14;21.00;55.50
27671;DHT22;15077;49.704;9.908;2023-09-12T03:55:41;21.00;55.50
27671;DHT22;15077;49.704;9.908;2023-09-12T03:58:08;20.90;55.50
27671;DHT22;15077;49.704;9.908;2023-09-12T04:00:34;20.90;55.60
27671;DHT22;15077;49.704;9.908;2023-09-12T04:03:00;20.90;55.60
27671;DHT22;15077;49.704;9.908;2023-09-12T04:05:26;20.90;55.70
27671;DHT22;15077;49.704;9.908;2023-09-12T04:07:54;20.80;55.70
27671;DHT22;15077;49.704;9.908;2023-09-12T04:10:21;20.80;55.80
27671;DHT22;15077;49.704;9.908;2023-09-12T04:12:47;20.80;55.80
27671;DHT22;15077;49.704;9.908;2023-09-12T04:15:13;20.80;55.80
27671;DHT22;15077;49.704;9.908;2023-09-12T04:17:40;20.80;55.90
27671;DHT22;15077;49.704;9.908;2023-09-12T04:20:07;20.80;56.00
27671;DHT22;15077;49.704;9.908;2023-09-12T04:22:34;20.70;55.90
27671;DHT22;15077;49.704;9.908;2023-09-12T04:25:00;20.70;55.90
27671;DHT22;15077;49.704;9.908;2023-09-12T04:27:30;20.70;56.10
27671;DHT22;15077;49.704;9.908;2023-09-12T04:29:56;20.70;56.00
27671;DHT22;15077;49.704;9.908;2023-09-12T04:32:22;20.60;56.00
27671;DHT22;15077;49.704;9.908;2023-09-12T04:34:53;20.60;56.10
27671;DHT22;15077;49.704;9.908;2023-09-12T04:37:18;20.60;56.20
27671;DHT22;15077;49.704;9.908;2023-09-12T04:39:45;20.60;56.10
27671;DHT22;15077;49.704;9.908;2023-09-12T04:42:10;20.60;56.10
27671;DHT22;15077;49.704;9.908;2023-09-12T04:44:40;20.50;56.10
27671;DHT22;15077;49.704;9.908;2023-09-12T04:47:07;20.50;56.20
27671;DHT22;15077;49.704;9.908;2023-09-12T04:49:33;20.50;56.30
27671;DHT22;15077;49.704;9.908;2023-09-12T04:51:59;20.50;56.30
27671;DHT22;15077;49.704;9.908;2023-09-12T04:54:25;20.50;56.40
27671;DHT22;15077;49.704;9.908;2023-09-12T04:56:51;20.50;56.40
27671;DHT22;15077;49.704;9.908;2023-09-12T04:59:17;20.40;56.40
27671;DHT22;15077;49.704;9.908;2023-09-12T05:01:42;20.40;56.40
27671;DHT22;15077;49.704;9.908;2023-09-12T05:04:08;20.40;56.50
27671;DHT22;15077;49.704;9.908;2023-09-12T05:06:35;20.40;56.70
27671;DHT22;15077;49.704;9.908;2023-09-12T05:09:01;20.40;56.70
27671;DHT22;15077;49.704;9.908;2023-09-12T05:11:27;20.30;56.60
27671;DHT22;15077;49.704;9.908;2023-09-12T05:13:53;20.30;56.60
27671;DHT22;15077;49.704;9.908;2023-09-12T05:16:18;20.30;56.70
27671;DHT22;15077;49.704;9.908;2023-09-12T05:18:45;20.30;56.70
27671;DHT22;15077;49.704;9.908;2023-09-12T05:21:11;20.30;56.90
27671;DHT22;15077;49.704;9.908;2023-09-12T05:23:36;20.30;56.80
27671;DHT22;15077;49.704;9.908;2023-09-12T05:26:02;20.30;56.90
27671;DHT22;15077;49.704;9.908;2023-09-12T05:28:28;20.30;57.00
27671;DHT22;15077;49.704;9.908;2023-09-12T05:30:54;20.30;57.10
27671;DHT22;15077;49.704;9.908;2023-09-12T05:33:19;20.30;57.00
27671;DHT22;15077;49.704;9.908;2023-09-12T05:35:45;20.30;57.20
27671;DHT22;15077;49.704;9.908;2023-09-12T05:38:11;20.30;57.20
27671;DHT22;15077;49.704;9.908;2023-09-12T05:40:37;20.30;57.40
27671;DHT22;15077;49.704;9.908;2023-09-12T05:43:03;20.30;57.50
27671;DHT22;15077;49.704;9.908;2023-09-12T05:45:29;20.30;57.60
27671;DHT22;15077;49.704;9.908;2023-09-12T05:47:58;20.30;57.60
27671;DHT22;15077;49.704;9.908;2023-09-12T05:50:25;20.30;57.60
27671;DHT22;15077;49.704;9.908;2023-09-12T05:52:50;20.30;57.70
27671;DHT22;15077;49.704;9.908;2023-09-12T05:55:16;20.30;57.80
27671;DHT22;15077;49.704;9.908;2023-09-12T05:57:43;20.30;58.00
27671;DHT22;15077;49.704;9.908;2023-09-12T06:00:10;20.30;57.90
27671;DHT22;15077;49.704;9.908;2023-09-12T06:02:38;20.40;58.20
27671;DHT22;15077;49.704;9.908;2023-09-12T06:05:04;20.40;58.10
27671;DHT22;15077;49.704;9.908;2023-09-12T06:07:31;20.40;58.20
27671;DHT22;15077;49.704;9.908;2023-09-12T06:09:58;20.40;58.10
27671;DHT22;15077;49.704;9.908;2023-09-12T06:12:23;20.40;58.20
27671;DHT22;15077;49.704;9.908;2023-09-12T06:14:50;20.50;58.60
27671;DHT22;15077;49.704;9.908;2023-09-12T06:17:16;20.50;58.60
27671;DHT22;15077;49.704;9.908;2023-09-12T06:19:42;20.50;59.30
27671;DHT22;15077;49.704;9.908;2023-09-12T06:22:07;20.50;58.60
27671;DHT22;15077;49.704;9.908;2023-09-12T06:24:33;20.50;58.60
27671;DHT22;15077;49.704;9.908;2023-09-12T06:26:59;20.60;58.70
27671;DHT22;15077;49.704;9.908;2023-09-12T06:29:24;20.50;58.70
27671;DHT22;15077;49.704;9.908;2023-09-12T06:31:50;20.60;59.10
27671;DHT22;15077;49.704;9.908;2023-09-12T06:34:16;20.60;59.20
27671;DHT22;15077;49.704;9.908;2023-09-12T06:36:42;20.60;59.40
27671;DHT22;15077;49.704;9.908;2023-09-12T06:39:10;20.70;59.50
27671;DHT22;15077;49.704;9.908;2023-09-12T06:41:36;20.80;60.50
27671;DHT22;15077;49.704;9.908;2023-09-12T06:44:02;20.80;60.40
27671;DHT22;15077;49.704;9.908;2023-09-12T06:46:29;20.90;60.50
27671;DHT22;15077;49.704;9.908;2023-09-12T06:48:55;20.90;60.60
27671;DHT22;15077;49.704;9.908;2023-09-12T06:51:25;20.90;61.10
27671;DHT22;15077;49.704;9.908;2023-09-12T06:53:51;21.00;61.90
27671;DHT22;15077;49.704;9.908;2023-09-12T06:56:17;21.10;62.20
27671;DHT22;15077;49.704;9.908;2023-09-12T06:58:43;21.10;61.90
27671;DHT22;15077;49.704;9.908;2023-09-12T07:01:09;21.20;62.60
27671;DHT22;15077;49.704;9.908;2023-09-12T07:03:35;21.30;62.30
27671;DHT22;15077;49.704;9.908;2023-09-12T07:06:02;21.30;62.10
27671;DHT22;15077;49.704;9.908;2023-09-12T07:08:32;21.40;61.90
27671;DHT22;15077;49.704;9.908;2023-09-12T07:10:59;21.50;62.10
27671;DHT22;15077;49.704;9.908;2023-09-12T07:13:31;21.50;62.30
27671;DHT22;15077;49.704;9.908;2023-09-12T07:15:57;21.60;62.10
27671;DHT22;15077;49.704;9.908;2023-09-12T07:18:24;21.70;62.20
27671;DHT22;15077;49.704;9.908;2023-09-12T07:20:59;21.70;62.20
27671;DHT22;15077;49.704;9.908;2023-09-12T07:23:26;21.80;62.20
27671;DHT22;15077;49.704;9.908;2023-09-12T07:25:53;21.80;61.90
27671;DHT22;15077;49.704;9.908;2023-09-12T07:28:20;21.90;62.10
27671;DHT22;15077;49.704;9.908;2023-09-12T07:30:47;22.00;62.00
27671;DHT22;15077;49.704;9.908;2023-09-12T07:33:12;22.00;61.80
27671;DHT22;15077;49.704;9.908;2023-09-12T07:35:39;22.10;61.80
27671;DHT22;15077;49.704;9.908;2023-09-12T07:38:04;22.20;61.80
27671;DHT22;15077;49.704;9.908;2023-09-12T07:40:30;22.20;61.60
27671;DHT22;15077;49.704;9.908;2023-09-12T07:42:56;22.30;61.50
27671;DHT22;15077;49.704;9.908;2023-09-12T07:45:21;22.40;61.60
27671;DHT22;15077;49.704;9.908;2023-09-12T07:47:47;22.40;61.50
27671;DHT22;15077;49.704;9.908;2023-09-12T07:50:13;22.50;61.30
27671;DHT22;15077;49.704;9.908;2023-09-12T07:52:39;22.60;61.60
27671;DHT22;15077;49.704;9.908;2023-09-12T07:55:07;22.60;61.40
27671;DHT22;15077;49.704;9.908;2023-09-12T07:57:33;22.70;61.50
27671;DHT22;15077;49.704;9.908;2023-09-12T08:00:00;22.80;61.70
27671;DHT22;15077;49.704;9.908;2023-09-12T08:02:28;22.80;61.70
27671;DHT22;15077;49.704;9.908;2023-09-12T08:04:54;22.90;61.50
27671;DHT22;15077;49.704;9.908;2023-09-12T08:07:20;23.00;61.90
27671;DHT22;15077;49.704;9.908;2023-09-12T08:09:52;23.10;62.00
27671;DHT22;15077;49.704;9.908;2023-09-12T08:12:21;23.10;62.20
27671;DHT22;15077;49.704;9.908;2023-09-12T08:14:48;23.20;62.00
27671;DHT22;15077;49.704;9.908;2023-09-12T08:17:14;23.30;61.80
27671;DHT22;15077;49.704;9.908;2023-09-12T08:19:41;23.40;61.90
27671;DHT22;15077;49.704;9.908;2023-09-12T08:22:08;23.50;61.70
27671;DHT22;15077;49.704;9.908;2023-09-12T08:24:36;23.60;61.50
27671;DHT22;15077;49.704;9.908;2023-09-12T08:27:03;23.70;61.40
27671;DHT22;15077;49.704;9.908;2023-09-12T08:29:29;23.80;61.50
27671;DHT22;15077;49.704;9.908;2023-09-12T08:31:56;23.90;61.30
27671;DHT22;15077;49.704;9.908;2023-09-12T08:34:22;24.00;61.10
27671;DHT22;15077;49.704;9.908;2023-09-12T08:36:48;24.10;60.90
27671;DHT22;15077;49.704;9.908;2023-09-12T08:39:16;24.20;61.10
27671;DHT22;15077;49.704;9.908;2023-09-12T08:41:44;24.20;61.00
27671;DHT22;15077;49.704;9.908;2023-09-12T08:44:12;24.40;60.90
27671;DHT22;15077;49.704;9.908;2023-09-12T08:46:42;24.50;60.90
27671;DHT22;15077;49.704;9.908;2023-09-12T08:49:10;24.50;61.10
27671;DHT22;15077;49.704;9.908;2023-09-12T08:51:40;24.70;61.10
27671;DHT22;15077;49.704;9.908;2023-09-12T08:54:07;24.80;61.00
27671;DHT22;15077;49.704;9.908;2023-09-12T08:56:36;24.90;60.80
27671;DHT22;15077;49.704;9.908;2023-09-12T08:59:06;25.00;60.60
27671;DHT22;15077;49.704;9.908;2023-09-12T09:01:34;25.00;60.20
27671;DHT22;15077;49.704;9.908;2023-09-12T09:04:02;25.10;60.30
27671;DHT22;15077;49.704;9.908;2023-09-12T09:06:30;25.20;60.40
27671;DHT22;15077;49.704;9.908;2023-09-12T09:08:58;25.30;60.20
27671;DHT22;15077;49.704;9.908;2023-09-12T09:11:25;25.40;60.10
27671;DHT22;15077;49.704;9.908;2023-09-12T09:13:54;25.50;60.20
27671;DHT22;15077;49.704;9.908;2023-09-12T09:16:20;25.60;60.00
27671;DHT22;15077;49.704;9.908;2023-09-12T09:19:00;25.70;60.10
27671;DHT22;15077;49.704;9.908;2023-09-12T09:21:32;25.80;60.20
27671;DHT22;15077;49.704;9.908;2023-09-12T09:24:00;26.10;60.40
27671;DHT22;15077;49.704;9.908;2023-09-12T09:26:50;26.20;60.20
27671;DHT22;15077;49.704;9.908;2023-09-12T09:29:18;26.40;59.90
27671;DHT22;15077;49.704;9.908;2023-09-12T09:31:47;26.60;59.70
27671;DHT22;15077;49.704;9.908;2023-09-12T09:34:19;26.70;59.60
27671;DHT22;15077;49.704;9.908;2023-09-12T09:36:48;26.90;59.30
27671;DHT22;15077;49.704;9.908;2023-09-12T09:39:20;27.10;58.80
27671;DHT22;15077;49.704;9.908;2023-09-12T09:41:49;27.30;58.90
27671;DHT22;15077;49.704;9.908;2023-09-12T09:44:17;27.50;58.70
27671;DHT22;15077;49.704;9.908;2023-09-12T09:46:44;27.60;58.60
27671;DHT22;15077;49.704;9.908;2023-09-12T09:49:11;27.80;58.30
27671;DHT22;15077;49.704;9.908;2023-09-12T09:51:44;28.00;58.30
27671;DHT22;15077;49.704;9.908;2023-09-12T09:54:12;28.20;58.10
27671;DHT22;15077;49.704;9.908;2023-09-12T09:56:46;28.30;58.00
27671;DHT22;15077;49.704;9.908;2023-09-12T09:59:17;28.50;57.90
27671;DHT22;15077;49.704;9.908;2023-09-12T10:01:45;28.70;57.50
27671;DHT22;15077;49.704;9.908;2023-09-12T10:04:12;28.80;57.40
27671;DHT22;15077;49.704;9.908;2023-09-12T10:06:38;29.00;57.40
27671;DHT22;15077;49.704;9.908;2023-09-12T10:09:10;29.10;56.80
27671;DHT22;15077;49.704;9.908;2023-09-12T10:11:38;29.20;56.60
27671;DHT22;15077;49.704;9.908;2023-09-12T10:14:06;29.40;56.70
27671;DHT22;15077;49.704;9.908;2023-09-12T10:16:34;29.60;56.20
27671;DHT22;15077;49.704;9.908;2023-09-12T10:19:18;29.70;55.10
27671;DHT22;15077;49.704;9.908;2023-09-12T10:22:06;29.90;55.00
27671;DHT22;15077;49.704;9.908;2023-09-12T10:24:35;30.00;54.30
27671;DHT22;15077;49.704;9.908;2023-09-12T10:27:05;30.10;53.90
27671;DHT22;15077;49.704;9.908;2023-09-12T10:29:32;30.20;53.80
27671;DHT22;15077;49.704;9.908;2023-09-12T10:32:01;30.30;54.40
27671;DHT22;15077;49.704;9.908;2023-09-12T10:34:27;30.50;53.90
27671;DHT22;15077;49.704;9.908;2023-09-12T10:36:58;30.70;53.90
27671;DHT22;15077;49.704;9.908;2023-09-12T10:39:31;30.90;53.90
27671;DHT22;15077;49.704;9.908;2023-09-12T10:41:59;31.00;54.20
27671;DHT22;15077;49.704;9.908;2023-09-12T10:44:25;31.20;53.70
27671;DHT22;15077;49.704;9.908;2023-09-12T10:46:52;31.30;53.50
27671;DHT22;15077;49.704;9.908;2023-09-12T10:49:19;31.50;53.40
27671;DHT22;15077;49.704;9.908;2023-09-12T10:51:46;31.70;52.90
27671;DHT22;15077;49.704;9.908;2023-09-12T10:54:16;31.80;52.40
27671;DHT22;15077;49.704;9.908;2023-09-12T10:59:29;32.00;51.30
27671;DHT22;15077;49.704;9.908;2023-09-12T11:04:59;32.10;51.40
27671;DHT22;15077;49.704;9.908;2023-09-12T11:12:50;32.40;50.90
27671;DHT22;15077;49.704;9.908;2023-09-12T11:15:23;32.60;51.10
27671;DHT22;15077;49.704;9.908;2023-09-12T11:18:06;32.70;51.30
27671;DHT22;15077;49.704;9.908;2023-09-12T11:23:24;33.00;50.40
27671;DHT22;15077;49.704;9.908;2023-09-12T11:26:05;33.10;50.30
27671;DHT22;15077;49.704;9.908;2023-09-12T11:28:32;33.10;49.90
27671;DHT22;15077;49.704;9.908;2023-09-12T11:30:58;33.10;49.00
27671;DHT22;15077;49.704;9.908;2023-09-12T11:33:25;33.20;48.90
27671;DHT22;15077;49.704;9.908;2023-09-12T11:35:55;33.10;49.40
27671;DHT22;15077;49.704;9.908;2023-09-12T11:38:29;33.20;49.00
27671;DHT22;15077;49.704;9.908;2023-09-12T11:40:59;33.20;48.30
27671;DHT22;15077;49.704;9.908;2023-09-12T11:43:26;33.20;48.60
27671;DHT22;15077;49.704;9.908;2023-09-12T11:45:55;33.30;49.30
27671;DHT22;15077;49.704;9.908;2023-09-12T11:48:21;33.30;49.00
27671;DHT22;15077;49.704;9.908;2023-09-12T11:50:55;33.40;49.10
27671;DHT22;15077;49.704;9.908;2023-09-12T11:53:24;33.50;48.40
27671;DHT22;15077;49.704;9.908;2023-09-12T11:55:57;33.60;48.40
27671;DHT22;15077;49.704;9.908;2023-09-12T11:58:25;33.70;47.90
27671;DHT22;15077;49.704;9.908;2023-09-12T12:00:54;33.70;48.00
27671;DHT22;15077;49.704;9.908;2023-09-12T12:03:25;33.80;48.10
27671;DHT22;15077;49.704;9.908;2023-09-12T12:05:54;33.90;47.60
27671;DHT22;15077;49.704;9.908;2023-09-12T12:08:21;34.00;47.70
27671;DHT22;15077;49.704;9.908;2023-09-12T12:10:50;34.00;46.70
27671;DHT22;15077;49.704;9.908;2023-09-12T12:13:18;34.00;46.50
27671;DHT22;15077;49.704;9.908;2023-09-12T12:15:45;34.10;46.80
27671;DHT22;15077;49.704;9.908;2023-09-12T12:18:11;34.10;47.30
27671;DHT22;15077;49.704;9.908;2023-09-12T12:20:37;34.10;47.30
27671;DHT22;15077;49.704;9.908;2023-09-12T12:23:03;34.20;46.90
27671;DHT22;15077;49.704;9.908;2023-09-12T12:25:33;34.20;46.40
27671;DHT22;15077;49.704;9.908;2023-09-12T12:28:00;34.20;46.30
27671;DHT22;15077;49.704;9.908;2023-09-12T12:30:30;34.20;46.50
27671;DHT22;15077;49.704;9.908;2023-09-12T12:32:59;34.20;46.80
27671;DHT22;15077;49.704;9.908;2023-09-12T12:35:26;34.20;46.70
27671;DHT22;15077;49.704;9.908;2023-09-12T12:37:55;34.20;46.60
27671;DHT22;15077;49.704;9.908;2023-09-12T12:40:22;34.30;46.60
27671;DHT22;15077;49.704;9.908;2023-09-12T12:42:48;34.30;46.20
27671;DHT22;15077;49.704;9.908;2023-09-12T12:45:16;34.30;46.30
27671;DHT22;15077;49.704;9.908;2023-09-12T12:47:48;34.30;45.80
27671;DHT22;15077;49.704;9.908;2023-09-12T12:50:17;34.40;46.00
27671;DHT22;15077;49.704;9.908;2023-09-12T12:52:47;34.40;46.20
27671;DHT22;15077;49.704;9.908;2023-09-12T12:55:15;34.50;45.80
27671;DHT22;15077;49.704;9.908;2023-09-12T12:57:43;34.50;46.00
27671;DHT22;15077;49.704;9.908;2023-09-12T13:00:11;34.50;45.80
27671;DHT22;15077;49.704;9.908;2023-09-12T13:02:42;34.60;45.00
27671;DHT22;15077;49.704;9.908;2023-09-12T13:05:25;34.70;45.10
27671;DHT22;15077;49.704;9.908;2023-09-12T13:07:53;34.70;45.00
27671;DHT22;15077;49.704;9.908;2023-09-12T13:10:20;34.80;44.50
27671;DHT22;15077;49.704;9.908;2023-09-12T13:12:47;34.80;44.40
27671;DHT22;15077;49.704;9.908;2023-09-12T13:15:15;34.90;44.60
27671;DHT22;15077;49.704;9.908;2023-09-12T13:17:43;34.90;44.80
27671;DHT22;15077;49.704;9.908;2023-09-12T13:20:09;35.00;45.20
27671;DHT22;15077;49.704;9.908;2023-09-12T13:22:36;35.00;44.50
27671;DHT22;15077;49.704;9.908;2023-09-12T13:25:03;35.00;44.30
27671;DHT22;15077;49.704;9.908;2023-09-12T13:27:29;35.10;44.50
27671;DHT22;15077;49.704;9.908;2023-09-12T13:29:55;35.10;44.40
27671;DHT22;15077;49.704;9.908;2023-09-12T13:32:21;35.10;44.20
27671;DHT22;15077;49.704;9.908;2023-09-12T13:34:47;35.10;43.70
27671;DHT22;15077;49.704;9.908;2023-09-12T13:37:13;35.20;44.10
27671;DHT22;15077;49.704;9.908;2023-09-12T13:39:42;35.20;44.10
27671;DHT22;15077;49.704;9.908;2023-09-12T13:42:12;35.20;44.10
27671;DHT22;15077;49.704;9.908;2023-09-12T13:44:39;35.20;44.10
27671;DHT22;15077;49.704;9.908;2023-09-12T13:47:05;35.20;43.90
27671;DHT22;15077;49.704;9.908;2023-09-12T13:49:31;35.30;43.70
27671;DHT22;15077;49.704;9.908;2023-09-12T13:51:57;35.30;44.00
27671;DHT22;15077;49.704;9.908;2023-09-12T13:54:22;35.30;44.20
27671;DHT22;15077;49.704;9.908;2023-09-12T13:56:48;35.40;43.60
27671;DHT22;15077;49.704;9.908;2023-09-12T13:59:14;35.40;43.20
27671;DHT22;15077;49.704;9.908;2023-09-12T14:01:41;35.50;42.90
27671;DHT22;15077;49.704;9.908;2023-09-12T14:04:07;35.50;42.70
27671;DHT22;15077;49.704;9.908;2023-09-12T14:06:33;35.60;42.90
27671;DHT22;15077;49.704;9.908;2023-09-12T14:09:02;35.60;42.70
27671;DHT22;15077;49.704;9.908;2023-09-12T14:11:28;35.70;42.50
27671;DHT22;15077;49.704;9.908;2023-09-12T14:13:54;35.70;42.80
27671;DHT22;15077;49.704;9.908;2023-09-12T14:16:19;35.70;42.60
27671;DHT22;15077;49.704;9.908;2023-09-12T14:18:45;35.70;42.70
27671;DHT22;15077;49.704;9.908;2023-09-12T14:21:11;35.70;42.70
27671;DHT22;15077;49.704;9.908;2023-09-12T14:23:37;35.70;42.90
27671;DHT22;15077;49.704;9.908;2023-09-12T14:26:02;35.70;43.00
27671;DHT22;15077;49.704;9.908;2023-09-12T14:28:28;35.70;42.90
27671;DHT22;15077;49.704;9.908;2023-09-12T14:30:54;35.70;42.70
27671;DHT22;15077;49.704;9.908;2023-09-12T14:33:20;35.70;42.40
27671;DHT22;15077;49.704;9.908;2023-09-12T14:35:47;35.80;42.10
27671;DHT22;15077;49.704;9.908;2023-09-12T14:38:13;35.80;42.00
27671;DHT22;15077;49.704;9.908;2023-09-12T14:40:38;35.80;42.00
27671;DHT22;15077;49.704;9.908;2023-09-12T14:43:05;35.80;42.20
27671;DHT22;15077;49.704;9.908;2023-09-12T14:45:33;35.80;42.20
27671;DHT22;15077;49.704;9.908;2023-09-12T14:47:59;35.80;42.00
27671;DHT22;15077;49.704;9.908;2023-09-12T14:50:24;35.80;42.20
27671;DHT22;15077;49.704;9.908;2023-09-12T14:52:54;35.90;42.20
27671;DHT22;15077;49.704;9.908;2023-09-12T14:55:21;35.80;42.20
27671;DHT22;15077;49.704;9.908;2023-09-12T14:57:47;35.80;42.00
27671;DHT22;15077;49.704;9.908;2023-09-12T15:00:14;35.80;41.80
27671;DHT22;15077;49.704;9.908;2023-09-12T15:02:40;35.80;42.00
27671;DHT22;15077;49.704;9.908;2023-09-12T15:05:07;35.80;41.90
27671;DHT22;15077;49.704;9.908;2023-09-12T15:07:33;35.80;42.00
27671;DHT22;15077;49.704;9.908;2023-09-12T15:10:01;35.80;41.90
27671;DHT22;15077;49.704;9.908;2023-09-12T15:12:27;35.90;41.80
27671;DHT22;15077;49.704;9.908;2023-09-12T15:14:53;35.90;41.40
27671;DHT22;15077;49.704;9.908;2023-09-12T15:17:19;35.90;41.50
27671;DHT22;15077;49.704;9.908;2023-09-12T15:19:44;35.90;40.70
27671;DHT22;15077;49.704;9.908;2023-09-12T15:22:10;35.90;40.50
27671;DHT22;15077;49.704;9.908;2023-09-12T15:24:36;35.90;40.10
27671;DHT22;15077;49.704;9.908;2023-09-12T15:27:02;35.90;40.00
27671;DHT22;15077;49.704;9.908;2023-09-12T15:29:28;35.80;40.00
27671;DHT22;15077;49.704;9.908;2023-09-12T15:31:54;35.90;40.00
27671;DHT22;15077;49.704;9.908;2023-09-12T15:34:20;35.80;40.20
27671;DHT22;15077;49.704;9.908;2023-09-12T15:36:46;35.80;39.70
27671;DHT22;15077;49.704;9.908;2023-09-12T15:39:14;35.70;39.80
27671;DHT22;15077;49.704;9.908;2023-09-12T15:41:40;35.70;39.90
27671;DHT22;15077;49.704;9.908;2023-09-12T15:44:06;35.70;39.10
27671;DHT22;15077;49.704;9.908;2023-09-12T15:46:33;35.70;39.30
27671;DHT22;15077;49.704;9.908;2023-09-12T15:48:59;35.70;39.70
27671;DHT22;15077;49.704;9.908;2023-09-12T15:51:25;35.70;39.80